Time;durP1;ratioP1;P1;durP2;ratioP2;P2;SDS_P1;SDS_P2;PMS_P1;PMS_P2;Temp;Humidity;BMP_temperature;BMP_pressure;BME280_temperature;BME280_humidity;BME280_pressure;Samples;Min_cycle;Max_cycle;Signal;HPM_P1;HPM_P2
2022/03/05 00:01:11;;;;;;;55.92;26.60;;;-0.70;99.90;;;;;;5005927;28;20076;-78
2022/03/05 00:03:38;;;;;;;70.50;32.40;;;-0.70;99.90;;;;;;5002117;28;20050;-78
2022/03/05 00:06:04;;;;;;;61.75;28.02;;;-0.80;99.90;;;;;;5001356;28;20212;-78
2022/03/05 00:08:31;;;;;;;59.58;28.25;;;-0.80;99.90;;;;;;5001441;28;20125;-78
2022/03/05 00:10:58;;;;;;;52.28;26.55;;;-0.80;99.90;;;;;;5001681;28;20338;-78
2022/03/05 00:13:25;;;;;;;70.22;32.45;;;-0.70;99.90;;;;;;5000393;28;20077;-78
2022/03/05 00:15:52;;;;;;;61.80;27.77;;;-0.70;99.90;;;;;;5000189;28;20070;-77
2022/03/05 00:18:19;;;;;;;50.05;24.60;;;-0.70;99.90;;;;;;4999398;28;20663;-77
2022/03/05 00:20:46;;;;;;;44.75;24.35;;;-0.70;99.90;;;;;;5005162;28;20115;-78
2022/03/05 00:23:17;;;;;;;66.55;31.85;;;-0.70;99.90;;;;;;4987858;28;20398;-77
2022/03/05 00:25:45;;;;;;;54.63;26.10;;;-0.70;99.90;;;;;;4999080;28;20513;-77
2022/03/05 00:28:12;;;;;;;65.35;30.58;;;-0.80;99.90;;;;;;4982962;28;20050;-77
2022/03/05 00:30:39;;;;;;;58.92;27.48;;;-0.80;99.90;;;;;;4999512;28;20045;-77
2022/03/05 00:33:06;;;;;;;78.32;33.55;;;-0.80;99.90;;;;;;4982927;28;20149;-77
2022/03/05 00:35:33;;;;;;;68.88;33.20;;;-0.80;99.90;;;;;;4982930;28;20045;-77
2022/03/05 00:38:00;;;;;;;53.05;26.55;;;-0.80;99.90;;;;;;4998652;28;20057;-77
2022/03/05 00:40:28;;;;;;;55.28;26.67;;;-0.90;99.90;;;;;;4997870;28;20096;-77
2022/03/05 00:42:54;;;;;;;54.38;25.20;;;-0.90;99.90;;;;;;4983654;28;20085;-77
2022/03/05 00:45:22;;;;;;;59.63;29.25;;;-0.90;99.90;;;;;;4998778;28;20064;-77
2022/03/05 00:47:49;;;;;;;52.55;25.90;;;-0.90;99.90;;;;;;5005214;28;20429;-77
2022/03/05 00:50:15;;;;;;;76.65;32.95;;;-0.90;99.90;;;;;;5012017;28;20497;-77
2022/03/05 00:52:42;;;;;;;221.65;74.38;;;-1.00;99.90;;;;;;4991052;28;20290;-77
2022/03/05 00:55:09;;;;;;;57.58;27.67;;;-1.00;99.90;;;;;;4999566;28;20112;-77
2022/03/05 00:57:36;;;;;;;48.47;24.58;;;-1.00;99.90;;;;;;4998934;28;20296;-77
2022/03/05 01:00:05;;;;;;;53.78;23.55;;;-1.00;99.90;;;;;;4981669;28;20450;-77
2022/03/05 01:02:33;;;;;;;142.35;48.60;;;-1.10;99.90;;;;;;4997938;28;20575;-77
2022/03/05 01:05:00;;;;;;;107.28;42.05;;;-1.10;99.90;;;;;;4982422;28;20093;-77
2022/03/05 01:07:27;;;;;;;90.40;36.80;;;-1.00;99.90;;;;;;4998975;28;20119;-77
2022/03/05 01:09:54;;;;;;;61.17;27.98;;;-1.10;99.90;;;;;;4998816;28;20149;-77
2022/03/05 01:12:22;;;;;;;91.75;35.58;;;-1.20;99.90;;;;;;4998246;28;20045;-77
2022/03/05 01:14:49;;;;;;;124.40;46.85;;;-1.20;99.90;;;;;;4998935;28;20065;-77
2022/03/05 01:17:16;;;;;;;101.53;41.33;;;-1.20;99.90;;;;;;4998386;28;20046;-77
2022/03/05 01:19:43;;;;;;;157.07;57.30;;;-1.10;99.90;;;;;;4999130;28;20359;-77
2022/03/05 01:22:10;;;;;;;102.30;41.05;;;-1.20;99.90;;;;;;5006768;28;20102;-77
2022/03/05 01:24:37;;;;;;;106.95;42.80;;;-1.10;99.90;;;;;;4998513;28;20169;-78
2022/03/05 01:27:09;;;;;;;98.03;37.60;;;-1.10;99.90;;;;;;4982657;28;20163;-77
2022/03/05 01:29:36;;;;;;;95.55;42.65;;;-1.10;99.90;;;;;;4982343;28;20301;-77
2022/03/05 01:32:04;;;;;;;53.90;27.35;;;-1.10;99.90;;;;;;4996121;28;20120;-77
2022/03/05 01:34:30;;;;;;;59.95;27.90;;;-1.10;99.90;;;;;;4982174;28;20042;-77
2022/03/05 01:36:57;;;;;;;45.33;25.50;;;-1.10;99.90;;;;;;4981200;28;20045;-77
2022/03/05 01:39:24;;;;;;;57.13;27.08;;;-1.20;99.90;;;;;;4998033;28;20104;-77
2022/03/05 01:41:54;;;;;;;56.70;25.65;;;-1.20;99.90;;;;;;4995799;28;20477;-77
2022/03/05 01:44:25;;;;;;;54.70;26.77;;;-1.20;99.90;;;;;;4997262;28;20395;-77
2022/03/05 01:46:52;;;;;;;50.75;24.33;;;-1.20;99.90;;;;;;4998426;28;20425;-77
2022/03/05 01:49:19;;;;;;;49.33;24.83;;;-1.20;99.90;;;;;;5016725;28;20040;-77
2022/03/05 01:51:47;;;;;;;56.58;26.08;;;-1.30;99.90;;;;;;4977386;28;20050;-77
2022/03/05 01:54:14;;;;;;;41.38;21.00;;;-1.30;99.90;;;;;;4999948;28;20332;-77
2022/03/05 01:56:42;;;;;;;54.58;24.23;;;-1.30;99.90;;;;;;4999010;28;20042;-77
2022/03/05 01:59:09;;;;;;;48.15;24.58;;;-1.30;99.90;;;;;;4997196;28;20054;-77
2022/03/05 02:01:36;;;;;;;44.95;22.00;;;-1.30;99.90;;;;;;4998355;28;20096;-77
2022/03/05 02:04:04;;;;;;;51.67;24.30;;;-1.40;99.90;;;;;;4981145;28;20121;-77
2022/03/05 02:06:31;;;;;;;53.33;25.42;;;-1.40;99.90;;;;;;4981349;28;20173;-77
2022/03/05 02:08:58;;;;;;;43.00;19.40;;;-1.40;99.90;;;;;;4981300;28;20407;-77
2022/03/05 02:11:26;;;;;;;52.33;25.45;;;-1.40;99.90;;;;;;4998003;28;20038;-77
2022/03/05 02:13:54;;;;;;;51.40;23.20;;;-1.40;99.90;;;;;;5013786;28;20191;-77
2022/03/05 02:16:22;;;;;;;52.17;24.60;;;-1.40;99.90;;;;;;4997432;28;20053;-77
2022/03/05 02:18:51;;;;;;;48.92;22.95;;;-1.40;99.90;;;;;;4997818;28;20057;-77
2022/03/05 02:21:20;;;;;;;50.47;24.80;;;-1.40;99.90;;;;;;4997266;28;20476;-77
2022/03/05 02:23:46;;;;;;;51.20;25.45;;;-1.40;99.90;;;;;;5000568;28;20072;-76
2022/03/05 02:26:14;;;;;;;51.25;23.38;;;-1.40;99.90;;;;;;5020871;28;20049;-77
2022/03/05 02:28:40;;;;;;;53.35;23.67;;;-1.40;99.90;;;;;;5003203;28;20053;-77
2022/03/05 02:31:07;;;;;;;56.75;24.85;;;-1.40;99.90;;;;;;4999320;28;20133;-77
2022/03/05 02:33:34;;;;;;;54.65;24.67;;;-1.40;99.90;;;;;;5000907;28;20046;-77
2022/03/05 02:36:03;;;;;;;55.80;25.15;;;-1.40;99.90;;;;;;5007647;28;20049;-77
2022/03/05 02:38:29;;;;;;;57.40;24.55;;;-1.40;99.90;;;;;;5017393;28;20068;-76
2022/03/05 02:40:56;;;;;;;58.83;25.02;;;-1.40;99.90;;;;;;5031742;28;20052;-77
2022/03/05 02:43:25;;;;;;;52.42;24.13;;;-1.40;99.90;;;;;;5026690;28;20053;-76
2022/03/05 02:45:52;;;;;;;59.65;26.83;;;-1.40;99.90;;;;;;5010308;28;20061;-76
2022/03/05 02:48:20;;;;;;;57.90;24.38;;;-1.40;99.90;;;;;;5014511;28;20076;-77
2022/03/05 02:50:48;;;;;;;57.78;24.40;;;-1.50;99.90;;;;;;5020850;28;20106;-77
2022/03/05 02:53:16;;;;;;;54.20;23.83;;;-1.50;99.90;;;;;;5005310;28;20497;-77
2022/03/05 02:55:43;;;;;;;53.35;23.67;;;-1.50;99.90;;;;;;5005164;28;20099;-77
2022/03/05 02:58:10;;;;;;;56.00;24.35;;;-1.40;99.90;;;;;;5021700;28;20115;-77
2022/03/05 03:00:37;;;;;;;59.15;24.83;;;-1.50;99.90;;;;;;5017599;28;20069;-77
2022/03/05 03:03:04;;;;;;;57.15;26.85;;;-1.50;99.90;;;;;;5030617;28;20077;-79
2022/03/05 03:05:31;;;;;;;56.25;24.13;;;-1.50;99.90;;;;;;5013490;28;20726;-77
2022/03/05 03:07:58;;;;;;;52.35;23.83;;;-1.50;99.90;;;;;;5011867;28;20057;-77
2022/03/05 03:10:25;;;;;;;61.63;26.40;;;-1.40;99.90;;;;;;5012898;28;20494;-77
2022/03/05 03:12:51;;;;;;;57.50;25.05;;;-1.50;99.90;;;;;;5004090;28;20096;-77
2022/03/05 03:15:18;;;;;;;47.45;20.83;;;-1.50;99.90;;;;;;4998736;28;20081;-77
2022/03/05 03:17:50;;;;;;;60.90;26.20;;;-1.50;99.90;;;;;;5001015;28;20057;-77
2022/03/05 03:20:24;;;;;;;52.00;23.55;;;-1.50;99.90;;;;;;4998109;28;20049;-77
2022/03/05 03:22:50;;;;;;;55.55;24.23;;;-1.50;99.90;;;;;;5000658;28;20064;-77
2022/03/05 03:25:17;;;;;;;45.78;20.08;;;-1.50;99.90;;;;;;5000361;28;20092;-77
2022/03/05 03:27:44;;;;;;;58.50;23.77;;;-1.50;99.90;;;;;;5000979;28;20391;-77
2022/03/05 03:30:13;;;;;;;60.60;23.80;;;-1.50;99.90;;;;;;4998947;28;20166;-77
2022/03/05 03:32:41;;;;;;;57.35;25.13;;;-1.50;99.90;;;;;;4998146;28;20149;-77
2022/03/05 03:35:10;;;;;;;56.08;22.95;;;-1.50;99.90;;;;;;5016473;28;20130;-77
2022/03/05 03:37:37;;;;;;;48.83;21.95;;;-1.50;99.90;;;;;;5007970;28;20302;-77
2022/03/05 03:40:07;;;;;;;66.85;25.15;;;-1.50;99.90;;;;;;4995803;28;20429;-77
2022/03/05 03:42:34;;;;;;;60.65;24.35;;;-1.50;99.90;;;;;;4998418;28;20099;-77
2022/03/05 03:45:03;;;;;;;43.22;20.30;;;-1.50;99.90;;;;;;4998782;28;20099;-77
2022/03/05 03:47:30;;;;;;;56.60;23.20;;;-1.50;99.90;;;;;;5001458;28;20084;-77
2022/03/05 03:49:56;;;;;;;57.38;22.35;;;-1.50;99.90;;;;;;5019597;28;20469;-76
2022/03/05 03:52:23;;;;;;;54.33;26.05;;;-1.50;99.90;;;;;;5017504;28;20038;-77
2022/03/05 03:54:50;;;;;;;56.58;23.27;;;-1.50;99.90;;;;;;5013690;28;20154;-77
2022/03/05 03:57:17;;;;;;;58.40;25.02;;;-1.50;99.90;;;;;;4978963;28;20104;-77
2022/03/05 03:59:46;;;;;;;56.72;24.70;;;-1.50;99.90;;;;;;4982423;28;20104;-77
2022/03/05 04:02:14;;;;;;;55.22;23.98;;;-1.50;99.90;;;;;;4997866;28;20045;-77
2022/03/05 04:04:41;;;;;;;58.88;25.67;;;-1.50;99.90;;;;;;4999412;28;20060;-77
2022/03/05 04:09:54;;;;;;;;;;;-1.50;99.90;;;;;;4998274;28;20093;-77
2022/03/05 04:12:22;;;;;;;56.67;25.15;;;-1.50;99.90;;;;;;4998745;28;19929;-77
2022/03/05 04:14:50;;;;;;;59.20;23.52;;;-1.60;99.90;;;;;;4998110;28;20127;-77
2022/03/05 04:17:17;;;;;;;63.30;25.90;;;-1.50;99.90;;;;;;4996292;28;20049;-77
2022/03/05 04:19:44;;;;;;;60.75;26.48;;;-1.60;99.90;;;;;;4979851;28;20140;-77
2022/03/05 04:22:11;;;;;;;58.53;25.75;;;-1.50;99.90;;;;;;4997163;28;20045;-77
2022/03/05 04:24:38;;;;;;;60.92;25.95;;;-1.50;99.90;;;;;;4998772;28;20076;-77
2022/03/05 04:27:06;;;;;;;63.33;24.80;;;-1.60;99.90;;;;;;4980658;28;20536;-77
2022/03/05 04:29:33;;;;;;;56.85;22.85;;;-1.60;99.90;;;;;;4997431;28;20155;-77
2022/03/05 04:32:00;;;;;;;63.85;26.25;;;-1.50;99.90;;;;;;4990758;28;20038;-77
2022/03/05 04:34:27;;;;;;;66.72;26.58;;;-1.50;99.90;;;;;;5010734;28;20045;-77
2022/03/05 04:36:54;;;;;;;62.15;25.83;;;-1.50;99.90;;;;;;5018042;28;20107;-77
2022/03/05 04:39:21;;;;;;;62.55;25.92;;;-1.50;99.90;;;;;;5018274;28;20053;-77
2022/03/05 04:41:48;;;;;;;62.92;25.85;;;-1.50;99.90;;;;;;5016051;28;20119;-77
2022/03/05 04:44:15;;;;;;;60.38;24.98;;;-1.50;99.90;;;;;;5016180;28;20080;-76
2022/03/05 04:46:42;;;;;;;64.05;25.50;;;-1.50;99.90;;;;;;4982000;28;20081;-75
2022/03/05 04:49:14;;;;;;;66.43;25.38;;;-1.50;99.90;;;;;;4998659;28;20046;-75
2022/03/05 04:51:41;;;;;;;51.10;21.50;;;-1.50;99.90;;;;;;4979979;28;20100;-76
2022/03/05 04:54:09;;;;;;;66.85;26.23;;;-1.60;99.90;;;;;;4997731;28;20146;-76
2022/03/05 04:56:36;;;;;;;63.45;22.73;;;-1.60;99.90;;;;;;4997647;28;20041;-76
2022/03/05 04:59:04;;;;;;;52.28;22.92;;;-1.60;99.90;;;;;;4996858;28;20759;-76
2022/03/05 05:01:31;;;;;;;45.50;19.90;;;-1.60;99.90;;;;;;4995332;28;20038;-76
2022/03/05 05:03:59;;;;;;;63.63;25.83;;;-1.50;99.90;;;;;;4998115;28;20045;-76
2022/03/05 05:06:26;;;;;;;70.13;26.17;;;-1.50;99.90;;;;;;5008065;28;20429;-76
2022/03/05 05:08:53;;;;;;;62.03;22.13;;;-1.50;99.90;;;;;;4983870;28;20069;-76
2022/03/05 05:11:20;;;;;;;64.90;25.70;;;-1.50;99.90;;;;;;4991733;28;20061;-76
2022/03/05 05:13:46;;;;;;;62.22;24.58;;;-1.50;99.90;;;;;;4993748;28;20136;-76
2022/03/05 05:16:13;;;;;;;69.80;27.95;;;-1.50;99.90;;;;;;4992705;28;20045;-76
2022/03/05 05:19:24;;;;;;;69.15;26.80;;;-1.50;99.90;;;;;;4996781;28;20141;-76
2022/03/05 05:21:27;;;;;;;61.97;23.63;;;-1.60;99.90;;;;;;4995460;28;20053;-76
2022/03/05 05:23:54;;;;;;;66.75;26.38;;;-1.50;99.90;;;;;;4996353;28;20532;-76
2022/03/05 05:26:21;;;;;;;61.97;24.90;;;-1.60;99.90;;;;;;4976937;28;20415;-76
2022/03/05 05:28:48;;;;;;;67.13;25.55;;;-1.60;99.90;;;;;;4977814;28;20115;-76
2022/03/05 05:31:15;;;;;;;70.25;28.20;;;-1.60;99.90;;;;;;4990488;28;20042;-76
2022/03/05 05:33:44;;;;;;;63.88;25.40;;;-1.60;99.90;;;;;;5003154;28;20072;-76
2022/03/05 05:36:12;;;;;;;67.90;25.42;;;-1.60;99.90;;;;;;5015556;28;20548;-76
2022/03/05 05:38:39;;;;;;;58.95;24.33;;;-1.60;99.90;;;;;;5000035;28;20437;-76
2022/03/05 05:41:07;;;;;;;67.88;26.60;;;-1.60;99.90;;;;;;5014948;28;20495;-76
2022/03/05 05:43:34;;;;;;;72.78;25.73;;;-1.70;99.90;;;;;;5005032;28;20112;-76
2022/03/05 05:46:01;;;;;;;66.45;24.33;;;-1.60;99.90;;;;;;4997374;28;20149;-76
2022/03/05 05:48:48;;;;;;;67.03;26.30;;;-1.60;99.90;;;;;;4996676;28;20197;-76
2022/03/05 05:51:15;;;;;;;61.17;24.42;;;-1.70;99.90;;;;;;4994954;28;20053;-76
2022/03/05 05:53:42;;;;;;;55.17;22.75;;;-1.60;99.90;;;;;;4980919;28;20088;-76
2022/03/05 05:56:09;;;;;;;63.45;23.48;;;-1.70;99.90;;;;;;4996304;28;20050;-76
2022/03/05 05:58:36;;;;;;;59.67;26.13;;;-1.70;99.90;;;;;;4980262;28;20057;-76
2022/03/05 06:01:03;;;;;;;61.35;27.08;;;-1.70;99.90;;;;;;4996104;28;20061;-76
2022/03/05 06:03:30;;;;;;;58.92;24.40;;;-1.70;99.90;;;;;;4987802;28;20064;-76
2022/03/05 06:06:00;;;;;;;59.22;24.08;;;-1.60;99.90;;;;;;5019237;28;20060;-76
2022/03/05 06:08:27;;;;;;;55.20;23.52;;;-1.70;99.90;;;;;;5019531;28;20060;-76
2022/03/05 06:10:55;;;;;;;61.60;24.10;;;-1.60;99.90;;;;;;5002092;28;20069;-76
2022/03/05 06:13:22;;;;;;;73.20;26.83;;;-1.70;99.90;;;;;;5019380;28;20050;-76
2022/03/05 06:15:49;;;;;;;62.80;25.88;;;-1.70;99.90;;;;;;4996307;28;20068;-76
2022/03/05 06:18:16;;;;;;;68.13;28.00;;;-1.60;99.90;;;;;;4999267;28;20498;-76
2022/03/05 06:20:48;;;;;;;53.80;23.90;;;-1.60;99.90;;;;;;4998697;28;20529;-76
2022/03/05 06:23:14;;;;;;;78.03;26.92;;;-1.60;99.90;;;;;;4999659;28;20631;-76
2022/03/05 06:25:41;;;;;;;69.68;27.50;;;-1.70;99.90;;;;;;4999669;28;20108;-76
2022/03/05 06:28:08;;;;;;;68.07;26.60;;;-1.60;99.90;;;;;;4999360;28;20424;-76
2022/03/05 06:30:35;;;;;;;63.95;25.77;;;-1.60;99.90;;;;;;4998493;28;20088;-76
2022/03/05 06:33:02;;;;;;;62.30;25.15;;;-1.60;99.90;;;;;;4984166;28;20056;-76
2022/03/05 06:35:29;;;;;;;47.28;19.92;;;-1.60;99.90;;;;;;4995237;28;20049;-76
2022/03/05 06:37:56;;;;;;;69.10;27.83;;;-1.50;99.90;;;;;;4999828;28;20112;-76
2022/03/05 06:40:23;;;;;;;73.47;29.58;;;-1.50;99.90;;;;;;4998050;28;20053;-76
2022/03/05 06:42:50;;;;;;;56.95;24.58;;;-1.50;99.90;;;;;;4997775;28;20341;-76
2022/03/05 06:45:17;;;;;;;46.50;19.00;;;-1.50;99.90;;;;;;4987329;28;20139;-76
2022/03/05 06:47:44;;;;;;;58.42;23.85;;;-1.50;99.90;;;;;;4999325;28;20148;-76
2022/03/05 06:50:11;;;;;;;73.50;28.38;;;-1.50;99.90;;;;;;4998664;28;20346;-76
2022/03/05 06:52:38;;;;;;;60.47;26.23;;;-1.40;99.90;;;;;;4998960;28;20259;-76
2022/03/05 06:55:06;;;;;;;53.75;24.25;;;-1.40;99.90;;;;;;5000125;28;20490;-76
2022/03/05 06:57:34;;;;;;;64.38;25.13;;;-1.40;99.90;;;;;;4998944;28;20516;-76
2022/03/05 07:00:00;;;;;;;66.18;26.25;;;-1.40;99.90;;;;;;4999507;28;20072;-76
2022/03/05 07:02:27;;;;;;;60.25;23.45;;;-1.40;99.90;;;;;;4998218;28;20363;-77
2022/03/05 07:04:54;;;;;;;63.03;26.98;;;-1.30;99.90;;;;;;5016584;23;20050;-77
2022/03/05 07:07:21;;;;;;;60.67;26.08;;;-1.30;99.90;;;;;;4979781;28;20050;-78
2022/03/05 07:09:48;;;;;;;61.67;26.52;;;-1.20;99.90;;;;;;4981862;28;20038;-77
2022/03/05 07:12:15;;;;;;;62.05;25.90;;;-1.20;99.90;;;;;;4981556;28;20125;-77
2022/03/05 07:14:44;;;;;;;53.88;23.13;;;-1.20;99.90;;;;;;4983005;28;20434;-77
2022/03/05 07:17:11;;;;;;;60.85;26.00;;;-1.10;99.90;;;;;;4997638;28;20053;-77
2022/03/05 07:19:38;;;;;;;70.13;26.58;;;-1.10;99.90;;;;;;5002839;28;20120;-79
2022/03/05 07:22:05;;;;;;;65.68;27.40;;;-1.00;99.90;;;;;;4986783;28;20442;-77
2022/03/05 07:24:32;;;;;;;63.00;26.95;;;-1.00;99.90;;;;;;4984605;28;20617;-77
2022/03/05 07:26:59;;;;;;;64.25;27.73;;;-0.90;99.90;;;;;;5000439;28;20473;-77
2022/03/05 07:29:25;;;;;;;63.97;28.58;;;-0.90;99.90;;;;;;5002307;28;20545;-77
2022/03/05 07:31:52;;;;;;;68.80;29.05;;;-0.80;99.90;;;;;;4982944;28;20078;-77
2022/03/05 07:34:19;;;;;;;57.83;26.95;;;-0.80;99.90;;;;;;4984619;28;20039;-77
2022/03/05 07:36:46;;;;;;;60.47;27.08;;;-0.70;99.90;;;;;;4986439;28;20549;-77
2022/03/05 07:39:13;;;;;;;67.35;27.75;;;-0.70;99.90;;;;;;4986684;28;20495;-78
2022/03/05 07:41:40;;;;;;;54.85;24.02;;;-0.60;99.90;;;;;;4984958;28;20035;-77
2022/03/05 07:44:09;;;;;;;55.72;25.77;;;-0.50;99.90;;;;;;4983161;28;20061;-77
2022/03/05 07:46:37;;;;;;;60.70;27.92;;;-0.50;99.90;;;;;;4986749;28;20051;-78
2022/03/05 07:49:05;;;;;;;60.90;27.63;;;-0.40;99.90;;;;;;5007698;28;20056;-77
2022/03/05 07:51:33;;;;;;;62.30;28.25;;;-0.30;99.90;;;;;;5015940;28;20058;-77
2022/03/05 07:54:00;;;;;;;57.17;28.50;;;-0.30;99.90;;;;;;4999125;28;20096;-77
2022/03/05 07:56:27;;;;;;;61.15;29.23;;;-0.20;99.90;;;;;;4992548;28;20116;-78
2022/03/05 07:58:53;;;;;;;59.25;29.17;;;-0.10;99.90;;;;;;4991447;28;20077;-77
2022/03/05 08:01:20;;;;;;;57.70;26.52;;;-0.10;99.90;;;;;;4990374;28;20093;-77
2022/03/05 08:03:47;;;;;;;67.72;30.25;;;-0.10;99.90;;;;;;4990439;28;20042;-77
2022/03/05 08:06:14;;;;;;;58.78;29.75;;;-0.10;99.90;;;;;;4991719;28;20066;-78
2022/03/05 08:08:41;;;;;;;63.45;31.00;;;0.00;99.90;;;;;;4991422;28;20082;-78
2022/03/05 08:11:08;;;;;;;67.45;33.03;;;0.10;99.90;;;;;;4997367;28;20054;-77
2022/03/05 08:13:35;;;;;;;59.53;30.23;;;0.20;99.90;;;;;;4994625;28;20251;-77
2022/03/05 08:16:01;;;;;;;53.97;30.77;;;0.30;99.90;;;;;;4987615;28;20105;-77
2022/03/05 08:18:28;;;;;;;56.75;28.77;;;0.20;99.90;;;;;;4988894;28;20081;-78
2022/03/05 08:20:55;;;;;;;58.35;28.73;;;0.40;99.90;;;;;;4985899;28;20050;-77
2022/03/05 08:23:22;;;;;;;43.47;27.45;;;0.50;99.90;;;;;;4984253;28;20112;-76
2022/03/05 08:25:49;;;;;;;55.53;34.83;;;0.80;99.90;;;;;;4978824;28;20054;-76
2022/03/05 08:28:17;;;;;;;60.58;38.85;;;0.90;99.90;;;;;;4980952;28;20105;-76
2022/03/05 08:30:44;;;;;;;57.35;36.20;;;1.10;99.90;;;;;;4987048;28;20072;-79
2022/03/05 08:33:11;;;;;;;55.58;39.05;;;1.20;99.90;;;;;;5007115;28;20050;-78
2022/03/05 08:35:38;;;;;;;56.13;38.30;;;1.50;99.90;;;;;;4990999;28;20050;-79
2022/03/05 08:38:05;;;;;;;56.67;38.30;;;1.60;99.90;;;;;;5006729;28;20053;-79
2022/03/05 08:40:31;;;;;;;58.78;38.83;;;1.70;99.90;;;;;;5001162;28;20045;-75
2022/03/05 08:42:58;;;;;;;56.10;38.90;;;2.00;99.90;;;;;;4985202;28;20073;-76
2022/03/05 08:45:28;;;;;;;54.17;39.13;;;2.10;99.90;;;;;;4979674;28;20049;-78
2022/03/05 08:47:55;;;;;;;61.97;43.20;;;2.10;99.90;;;;;;4985916;28;20046;-79
2022/03/05 08:50:22;;;;;;;56.78;41.53;;;2.00;99.90;;;;;;4982371;28;20074;-78
2022/03/05 08:52:49;;;;;;;56.15;41.25;;;2.10;99.90;;;;;;4977999;28;20522;-76
2022/03/05 08:55:18;;;;;;;57.70;41.33;;;2.20;99.90;;;;;;4978176;28;20082;-76
2022/03/05 08:57:45;;;;;;;50.25;36.15;;;2.30;99.90;;;;;;4976713;28;20039;-76
2022/03/05 09:00:14;;;;;;;52.95;40.60;;;2.30;99.90;;;;;;4979291;28;20129;-78
2022/03/05 09:02:42;;;;;;;53.25;39.38;;;2.20;99.90;;;;;;4986172;28;20081;-76
2022/03/05 09:05:10;;;;;;;57.08;40.70;;;2.20;99.90;;;;;;4990598;28;20324;-75
2022/03/05 09:07:37;;;;;;;49.10;37.83;;;2.30;99.90;;;;;;4959227;28;20057;-77
2022/03/05 09:10:04;;;;;;;55.92;42.25;;;2.50;99.90;;;;;;4973051;28;20057;-75
2022/03/05 09:12:31;;;;;;;53.75;41.55;;;2.60;99.90;;;;;;4991474;28;20046;-75
2022/03/05 09:14:58;;;;;;;53.30;41.58;;;2.40;99.90;;;;;;4983297;28;20521;-74
2022/03/05 09:17:25;;;;;;;54.72;42.10;;;2.60;99.90;;;;;;4985025;28;20108;-74
2022/03/05 09:19:53;;;;;;;49.20;40.40;;;2.90;99.90;;;;;;4990054;28;20046;-75
2022/03/05 09:22:20;;;;;;;54.38;42.80;;;2.70;99.90;;;;;;4980471;28;20604;-78
2022/03/05 09:24:47;;;;;;;53.40;41.40;;;2.70;99.90;;;;;;4992640;28;20054;-75
2022/03/05 09:27:14;;;;;;;53.17;43.67;;;2.80;99.90;;;;;;4983075;28;20334;-75
2022/03/05 09:29:41;;;;;;;55.67;46.40;;;3.10;99.90;;;;;;4965173;28;20564;-77
2022/03/05 09:32:09;;;;;;;48.80;40.95;;;3.20;99.90;;;;;;4987089;28;20050;-74
2022/03/05 09:34:36;;;;;;;51.05;40.80;;;3.20;99.90;;;;;;4985958;28;20046;-76
2022/03/05 09:37:04;;;;;;;55.55;43.03;;;2.90;99.90;;;;;;4984798;28;20054;-75
2022/03/05 09:39:31;;;;;;;51.10;43.75;;;2.90;99.90;;;;;;4988996;28;20045;-75
2022/03/05 09:41:58;;;;;;;54.47;44.67;;;3.30;99.90;;;;;;4990596;28;20599;-75
2022/03/05 09:44:25;;;;;;;53.50;45.40;;;3.50;99.90;;;;;;4992002;28;20696;-75
2022/03/05 09:46:53;;;;;;;56.35;45.50;;;3.60;99.90;;;;;;4986189;28;20056;-74
2022/03/05 09:49:20;;;;;;;53.42;44.67;;;3.80;99.90;;;;;;4984318;28;20588;-75
2022/03/05 09:51:47;;;;;;;49.45;44.05;;;3.70;99.90;;;;;;4989690;28;20457;-74
2022/03/05 09:54:13;;;;;;;51.72;45.13;;;3.80;99.90;;;;;;4988114;28;20054;-75
2022/03/05 09:56:40;;;;;;;51.67;43.65;;;4.00;99.90;;;;;;4974621;28;20073;-74
2022/03/05 09:59:07;;;;;;;50.75;44.35;;;4.10;99.90;;;;;;4983262;28;20072;-74
2022/03/05 10:01:35;;;;;;;51.88;46.25;;;3.90;99.90;;;;;;4984385;28;20848;-75
2022/03/05 10:04:03;;;;;;;49.45;43.97;;;3.90;99.90;;;;;;4987608;28;20045;-75
2022/03/05 10:06:29;;;;;;;51.90;45.92;;;4.20;99.90;;;;;;4989756;28;20066;-75
2022/03/05 10:08:57;;;;;;;46.50;41.08;;;4.50;99.90;;;;;;4988574;28;20397;-76
2022/03/05 10:11:36;;;;;;;50.65;43.10;;;4.80;99.90;;;;;;4981650;28;20050;-74
2022/03/05 10:14:14;;;;;;;58.00;44.78;;;4.70;99.90;;;;;;4987466;28;20100;-74
2022/03/05 10:16:41;;;;;;;50.38;44.00;;;4.40;99.90;;;;;;4982574;28;20572;-76
2022/03/05 10:19:19;;;;;;;50.35;43.63;;;4.50;99.90;;;;;;4988341;28;20048;-74
2022/03/05 10:22:08;;;;;;;53.58;45.15;;;4.70;99.90;;;;;;4988392;28;20448;-75
2022/03/05 10:24:39;;;;;;;53.13;42.97;;;4.60;99.90;;;;;;4988116;28;20055;-75
2022/03/05 10:27:09;;;;;;;48.22;41.10;;;5.10;99.90;;;;;;4988127;28;20054;-75
2022/03/05 10:29:39;;;;;;;51.13;42.65;;;4.70;99.90;;;;;;4979260;28;20163;-75
2022/03/05 10:32:10;;;;;;;47.15;39.47;;;4.90;99.90;;;;;;4983872;28;20503;-74
2022/03/05 10:34:45;;;;;;;50.33;41.53;;;4.80;99.90;;;;;;4992645;28;20112;-75
2022/03/05 10:37:12;;;;;;;47.03;38.20;;;4.80;99.90;;;;;;4978461;28;20425;-75
2022/03/05 10:39:39;;;;;;;47.80;38.03;;;4.90;99.90;;;;;;4984843;28;20053;-74
2022/03/05 10:42:26;;;;;;;42.90;36.70;;;5.40;99.90;;;;;;4981225;28;20579;-75
2022/03/05 10:45:06;;;;;;;48.20;39.67;;;5.20;99.90;;;;;;4988255;28;20281;-73
2022/03/05 10:47:37;;;;;;;44.13;36.58;;;5.20;99.90;;;;;;5000921;28;20108;-75
2022/03/05 10:50:25;;;;;;;39.92;34.17;;;4.80;99.90;;;;;;5006877;28;20050;-76
2022/03/05 10:53:00;;;;;;;47.75;38.17;;;4.30;99.90;;;;;;4973285;28;20279;-75
2022/03/05 10:55:29;;;;;;;47.30;40.03;;;4.20;99.90;;;;;;4960656;28;20637;-75
2022/03/05 10:58:14;;;;;;;44.50;38.67;;;4.50;99.90;;;;;;4976192;28;20409;-74
2022/03/05 11:00:41;;;;;;;53.30;39.88;;;4.60;99.90;;;;;;4965444;28;20133;-75
2022/03/05 11:03:08;;;;;;;44.83;39.97;;;4.70;99.90;;;;;;4962778;28;20528;-75
2022/03/05 11:05:38;;;;;;;51.95;40.72;;;4.70;99.90;;;;;;4959887;28;20343;-73
2022/03/05 11:08:06;;;;;;;50.25;44.92;;;4.90;99.90;;;;;;4969127;28;20076;-76
2022/03/05 11:10:33;;;;;;;50.53;45.33;;;5.20;99.90;;;;;;4977245;28;20081;-76
2022/03/05 11:13:03;;;;;;;51.88;44.17;;;5.30;99.90;;;;;;4981740;28;20077;-77
2022/03/05 11:15:31;;;;;;;51.33;43.85;;;5.50;99.90;;;;;;4963781;28;20050;-75
2022/03/05 11:17:58;;;;;;;55.38;45.45;;;5.70;99.90;;;;;;4961074;28;20039;-76
2022/03/05 11:20:26;;;;;;;51.88;46.25;;;5.70;99.90;;;;;;4958562;28;20086;-76
2022/03/05 11:22:55;;;;;;;54.85;47.30;;;5.70;99.90;;;;;;4990980;28;20305;-74
2022/03/05 11:25:26;;;;;;;57.67;47.88;;;5.30;99.90;;;;;;4960163;28;20047;-74
2022/03/05 11:27:59;;;;;;;47.45;42.65;;;5.30;99.90;;;;;;4973035;28;20303;-74
2022/03/05 11:30:27;;;;;;;54.40;46.42;;;5.20;99.90;;;;;;4960088;28;20474;-74
2022/03/05 11:32:54;;;;;;;62.28;50.05;;;4.90;99.90;;;;;;4956360;28;20360;-74
2022/03/05 11:35:28;;;;;;;61.92;49.47;;;5.00;99.90;;;;;;4965346;28;20138;-74
2022/03/05 11:37:55;;;;;;;58.13;47.58;;;5.40;99.90;;;;;;4975279;28;20038;-74
2022/03/05 11:40:42;;;;;;;55.13;46.70;;;5.40;99.90;;;;;;4969531;28;20700;-75
2022/03/05 11:43:20;;;;;;;56.83;47.58;;;5.60;99.90;;;;;;4983157;28;20085;-74
2022/03/05 11:45:48;;;;;;;61.13;46.97;;;5.70;99.90;;;;;;4978315;28;20289;-74
2022/03/05 11:48:24;;;;;;;52.25;46.70;;;5.80;99.90;;;;;;4999146;28;20034;-75
2022/03/05 11:50:51;;;;;;;;;;;5.90;99.90;;;;;;4997102;28;20043;-74
2022/03/05 11:53:18;;;;;;;52.53;44.60;;;6.00;99.90;;;;;;4975005;28;19926;-75
2022/03/05 11:55:46;;;;;;;50.15;44.78;;;5.60;99.90;;;;;;4959448;28;20050;-75
2022/03/05 11:58:13;;;;;;;51.67;46.13;;;5.70;99.90;;;;;;4959687;28;20891;-74
2022/03/05 12:00:51;;;;;;;50.45;45.00;;;5.70;99.90;;;;;;4963627;28;20078;-75
2022/03/05 12:03:38;;;;;;;50.67;45.28;;;5.80;99.90;;;;;;4957895;28;20365;-75
2022/03/05 12:06:06;;;;;;;50.70;45.60;;;5.60;99.90;;;;;;4964518;28;20050;-75
2022/03/05 12:08:33;;;;;;;50.72;45.42;;;5.90;99.90;;;;;;4963936;28;20128;-75
2022/03/05 12:11:13;;;;;;;47.92;42.97;;;6.10;99.90;;;;;;4987388;28;20100;-75
2022/03/05 12:13:44;;;;;;;50.10;44.50;;;5.90;99.90;;;;;;4999103;28;20053;-75
2022/03/05 12:16:18;;;;;;;49.30;43.95;;;5.90;99.90;;;;;;4998239;28;20192;-75
2022/03/05 12:22:48;;;;;;;48.08;43.08;;;6.30;99.90;;;;;;5035903;28;20091;-75
2022/03/05 12:25:16;;;;;;;49.75;42.67;;;6.30;99.90;;;;;;5021517;28;20053;-75
2022/03/05 12:27:50;;;;;;;47.58;42.55;;;6.10;99.90;;;;;;5005548;28;20049;-75
2022/03/05 12:30:32;;;;;;;49.08;43.90;;;6.00;99.90;;;;;;5018964;28;20045;-75
2022/03/05 12:33:01;;;;;;;47.33;42.30;;;6.30;99.90;;;;;;5022450;28;20044;-75
2022/03/05 12:35:29;;;;;;;47.60;42.95;;;6.30;99.90;;;;;;5028427;28;20042;-75
2022/03/05 12:37:56;;;;;;;48.67;43.40;;;6.20;99.90;;;;;;5038665;28;20044;-74
2022/03/05 12:40:25;;;;;;;46.35;41.75;;;6.40;99.90;;;;;;5006021;28;20251;-75
2022/03/05 12:42:55;;;;;;;48.28;43.47;;;6.60;99.90;;;;;;5022700;28;20052;-75